Whaleyville, MD (21872)

10:23 AM EDT on March 30, 2015 (GMT -0400)
The Cross Residence | | Change Station
CLOSE
Current Station
Personal Weather Station
Location: Showell, MD
Elevation: 25 ft
Nearby Weather Stations

Elev 25 ft 38.39 °N, 75.23 °W | Updated 9 seconds ago

Overcast
Overcast
39.7 °F
Feels Like 37 °F
N
4.0
Wind Variable Wind from North
Gusts 9.0 mph

Today
High -- | Low -- °F
--% Chance of Precip.
Yesterday
High -- | Low -- °F
Precip. -- in
6:49 AM 7:22 PM
Waxing Gibbous, 80% visible
Pressure 29.98 in
Visibility 6.0 miles
Clouds Overcast 5500 ft
Windchill 37 °F
Dew Point 36 °F
Humidity 86%
Rainfall 0.05 in
Snow Depth Not available.
UV 1 out of 12
Pollen 7.60 out of 12
Air Quality Not available.
Flu Activity Not available.
METAR KOXB 301353Z AUTO 23011KT 6SM -RA OVC055 04/01 A2998 RMK AO2 SLP152 P0003 T00390006 TSNO

More Conditions Fewer Conditions

Pressure 29.98 in
Visibility 6.0 miles
Clouds Overcast 5500 ft
Windchill 37 °F
Dew Point 36 °F
Humidity 86%
Rainfall 0.05 in
Snow Depth Not available.
UV 1 out of 12
Pollen 7.60 out of 12
Air Quality Not available.
Flu Activity Not available.
METAR KOXB 301353Z AUTO 23011KT 6SM -RA OVC055 04/01 A2998 RMK AO2 SLP152 P0003 T00390006 TSNO

More Conditions Fewer Conditions

10-Day Weather Forecast

Almanac

Astronomy

Mar. 30, 2015 Rise Set
Actual Time
Civil Twilight
Nautical Twilight
Astronomical Twilight
Moon
Length of Visible Light
Length of Day
Tomorrow will be .
, % of the Moon is Illuminated

Today's Extremes

State Highs State Lows

Community

WunderPhotos

Upload Photos

1,809,504 photos uploaded!

WunderBlogs® & News

Nearby

Air Quality

  Air Quality AQ Index Pollutant
Not available.

Snow Depth

Station Depth Elevation

Earthquake Activity

City Distance Mag. Time & Date
Minimum magnitude displayed is 2.5.

Coastal Water Temperatures

Place Temperature

Stations

Nearby Weather Stations

Station Location Temp. Windchill Dew Point Humidity Wind Precip. Elev Updated Type